Oriental Kerria — H8KO — position and weather

sailwx.info

Track history (hours):
 
Tides and Currents Weather Stations Pressure Air Temp Water Temp Dewpoint Dewpoint Depression Visibility Wind Speed Wind Dir Waves Ship Positions

Oriental Kerria

Last reported at 2018-Feb-12 16:53 UTC. Time now 2018-Feb-23 02:43 UTC.
Position N 01°14' E 104°01'.
Warning: this ship's position is 10 days out of date.

Length 134 m; draft 6.4 m.

Type: Ship (hazmat cat D). MMSI: 351302000.

Date/timePositionNaut miles runAvg speedWind from/ knotsBaromVisibWave heightAir tempDewpointWater temp
2018-Feb-12 16:53N 01°14' E 104°01'410.0
2018-Feb-12 16:28N 01°13' E 103°57'510.3
2018-Feb-12 15:59N 01°12' E 103°53'5 9.4
2018-Feb-12 15:30N 01°10' E 103°49'5 9.5
2018-Feb-12 14:57N 01°06' E 103°45'510.2
2018-Feb-12 14:26N 01°03' E 103°40'510.6
2018-Feb-12 13:58N 01°05' E 103°36'611.8
2018-Feb-12 13:30N 01°08' E 103°31'611.7
2018-Feb-12 12:59N 01°11' E 103°26'  
2018-Feb-07 09:30N 01°09' E 103°43'712.7
2018-Feb-07 08:59N 01°11' E 103°49'714.2
2018-Feb-07 08:30N 01°14' E 103°55'12 0.5
2018-Feb-06 08:41N 01°26' E 103°54'0 0.2
2018-Feb-06 08:28N 01°26' E 103°54'10 6.3
2018-Feb-06 06:55N 01°22' E 104°03'3 7.7
2018-Feb-06 06:30N 01°19' E 104°05'  
Track history (hours):
 
Tides and Currents Weather Stations Pressure Air Temp Water Temp Dewpoint Dewpoint Depression Visibility Wind Speed Wind Dir Waves Ship Positions

Oriental Kerria

Last reported at 2018-Feb-12 16:53 UTC. Time now 2018-Feb-23 02:43 UTC.
Position N 01°14' E 104°01'.
Warning: this ship's position is 10 days out of date.

Length 134 m; draft 6.4 m.

Type: Ship (hazmat cat D). MMSI: 351302000.

Date/timePositionNaut miles runAvg speedWind from/ knotsBaromVisibWave heightAir tempDewpointWater temp
2018-Feb-12 16:53N 01°14' E 104°01'410.0
2018-Feb-12 16:28N 01°13' E 103°57'510.3
2018-Feb-12 15:59N 01°12' E 103°53'5 9.4
2018-Feb-12 15:30N 01°10' E 103°49'5 9.5
2018-Feb-12 14:57N 01°06' E 103°45'510.2
2018-Feb-12 14:26N 01°03' E 103°40'510.6
2018-Feb-12 13:58N 01°05' E 103°36'611.8
2018-Feb-12 13:30N 01°08' E 103°31'611.7
2018-Feb-12 12:59N 01°11' E 103°26'  
2018-Feb-07 09:30N 01°09' E 103°43'712.7
2018-Feb-07 08:59N 01°11' E 103°49'714.2
2018-Feb-07 08:30N 01°14' E 103°55'12 0.5
2018-Feb-06 08:41N 01°26' E 103°54'0 0.2
2018-Feb-06 08:28N 01°26' E 103°54'10 6.3
2018-Feb-06 06:55N 01°22' E 104°03'3 7.7
2018-Feb-06 06:30N 01°19' E 104°05'  

Dump ship's entire track history